createdAt,value
2018-09-03T00:00:46.601Z,99.00
2018-09-03T00:03:15.608Z,99.10
2018-09-03T00:05:44.596Z,99.20
2018-09-03T00:08:13.616Z,99.30
2018-09-03T00:10:42.684Z,99.30
2018-09-03T00:13:11.704Z,99.30
2018-09-03T00:15:40.754Z,99.40
2018-09-03T00:18:09.825Z,99.30
2018-09-03T00:20:38.861Z,99.20
2018-09-03T00:23:07.883Z,99.20
2018-09-03T00:25:36.886Z,99.10
2018-09-03T00:28:06.165Z,99.10
2018-09-03T00:30:35.185Z,99.20
2018-09-03T00:33:09.690Z,99.20
2018-09-03T00:35:43.963Z,99.30
2018-09-03T00:38:18.376Z,99.40
2018-09-03T00:40:52.882Z,99.40
2018-09-03T00:43:27.287Z,99.50
2018-09-03T00:46:01.534Z,99.60
2018-09-03T00:48:30.577Z,99.30
2018-09-03T00:50:59.595Z,99.50
2018-09-03T00:53:28.617Z,99.50
2018-09-03T00:55:57.659Z,99.50
2018-09-03T00:58:26.695Z,99.50
2018-09-03T01:00:55.728Z,99.50
2018-09-03T01:03:24.729Z,99.60
2018-09-03T01:05:53.770Z,99.70
2018-09-03T01:08:22.831Z,99.70
2018-09-03T01:10:51.853Z,99.80
2018-09-03T01:13:20.886Z,99.80
2018-09-03T01:15:49.991Z,99.80
2018-09-03T01:18:19.082Z,99.80
2018-09-03T01:20:48.735Z,99.70
2018-09-03T01:23:18.129Z,99.80
2018-09-03T01:25:47.188Z,99.90
2018-09-03T01:28:16.187Z,99.90
2018-09-03T01:30:45.226Z,99.90
2018-09-03T01:33:14.246Z,99.90
2018-09-03T01:35:43.252Z,99.90
2018-09-03T01:38:12.301Z,99.90
2018-09-03T01:40:41.473Z,99.90
2018-09-03T01:43:10.669Z,99.90
2018-09-03T01:45:39.699Z,99.90
2018-09-03T01:48:08.724Z,99.90
2018-09-03T01:50:37.693Z,99.90
2018-09-03T01:53:06.847Z,99.90
2018-09-03T01:55:35.866Z,99.90
2018-09-03T01:58:04.962Z,99.90
2018-09-03T02:00:33.976Z,99.90
2018-09-03T02:03:02.999Z,99.90
2018-09-03T02:05:32.011Z,99.90
2018-09-03T02:08:01.060Z,99.90
2018-09-03T02:10:30.092Z,99.90
2018-09-03T02:12:59.096Z,99.90
2018-09-03T02:15:28.182Z,99.90
2018-09-03T02:17:57.217Z,99.90
2018-09-03T02:20:26.282Z,99.90
2018-09-03T02:22:55.266Z,99.90
2018-09-03T02:25:24.395Z,99.90
2018-09-03T02:27:53.479Z,99.90
2018-09-03T02:30:22.492Z,99.90
2018-09-03T02:32:51.579Z,99.90
2018-09-03T02:35:20.643Z,99.90
2018-09-03T02:37:49.912Z,99.90
2018-09-03T02:40:18.970Z,99.90
2018-09-03T02:42:47.979Z,99.90
2018-09-03T02:45:16.977Z,99.90
2018-09-03T02:47:45.980Z,99.90
2018-09-03T02:50:15.053Z,99.90
2018-09-03T02:52:44.042Z,99.90
2018-09-03T02:55:13.093Z,99.90
2018-09-03T02:57:42.116Z,99.90
2018-09-03T03:00:11.139Z,99.90
2018-09-03T03:02:40.174Z,99.90
2018-09-03T03:05:09.287Z,99.90
2018-09-03T03:07:38.362Z,99.90
2018-09-03T03:10:08.142Z,99.90
2018-09-03T03:12:37.206Z,99.90
2018-09-03T03:15:06.629Z,99.90
2018-09-03T03:17:36.340Z,99.90
2018-09-03T03:20:05.988Z,99.90
2018-09-03T03:22:35.064Z,99.90
2018-09-03T03:25:04.793Z,99.90
2018-09-03T03:27:33.816Z,99.90
2018-09-03T03:30:02.873Z,99.90
2018-09-03T03:32:31.904Z,99.90
2018-09-03T03:35:00.910Z,99.90
2018-09-03T03:37:29.904Z,99.90
2018-09-03T03:39:59.026Z,99.90
2018-09-03T03:42:28.053Z,99.90
2018-09-03T03:44:57.071Z,99.90
2018-09-03T03:47:26.110Z,99.90
2018-09-03T03:49:55.549Z,99.90
2018-09-03T03:52:31.244Z,99.90
2018-09-03T03:55:00.344Z,99.90
2018-09-03T03:57:29.540Z,99.90
2018-09-03T03:59:58.756Z,99.90
2018-09-03T04:02:27.872Z,99.90
2018-09-03T04:04:56.870Z,99.90
2018-09-03T04:07:26.066Z,99.90
2018-09-03T04:09:55.436Z,99.90
2018-09-03T04:12:24.459Z,99.90
2018-09-03T04:14:53.514Z,99.90
2018-09-03T04:17:22.537Z,99.90
2018-09-03T04:20:07.392Z,99.90
2018-09-03T04:22:36.381Z,99.90
2018-09-03T04:25:05.625Z,99.90
2018-09-03T04:27:34.607Z,99.90
2018-09-03T04:30:04.054Z,99.90
2018-09-03T04:32:33.052Z,99.90
2018-09-03T04:35:02.171Z,99.90
2018-09-03T04:37:31.267Z,99.90
2018-09-03T04:40:00.404Z,99.90
2018-09-03T04:42:29.456Z,99.90
2018-09-03T04:44:58.533Z,99.90
2018-09-03T04:47:27.912Z,99.90
2018-09-03T04:49:56.438Z,99.90
2018-09-03T04:52:25.577Z,99.90
2018-09-03T04:54:55.390Z,99.90
2018-09-03T04:57:24.419Z,99.90
2018-09-03T04:59:53.576Z,99.90
2018-09-03T05:02:22.640Z,99.90
2018-09-03T05:04:51.695Z,99.90
2018-09-03T05:07:21.444Z,99.90
2018-09-03T05:09:50.507Z,99.90
2018-09-03T05:12:19.777Z,99.90
2018-09-03T05:14:48.797Z,99.90
2018-09-03T05:17:18.031Z,99.90
2018-09-03T05:19:47.057Z,99.90
2018-09-03T05:22:16.057Z,99.90
2018-09-03T05:24:45.113Z,99.90
2018-09-03T05:27:14.192Z,99.90
2018-09-03T05:29:43.577Z,99.90
2018-09-03T05:32:12.638Z,99.90
2018-09-03T05:34:41.718Z,99.90
2018-09-03T05:37:10.904Z,99.90
2018-09-03T05:39:39.935Z,99.90
2018-09-03T05:42:08.991Z,99.90
2018-09-03T05:44:38.021Z,99.90
2018-09-03T05:47:07.517Z,99.90
2018-09-03T05:49:36.578Z,99.90
2018-09-03T05:52:05.690Z,99.90
2018-09-03T05:54:34.742Z,99.90
2018-09-03T05:57:04.155Z,99.90
2018-09-03T05:59:33.279Z,99.90
2018-09-03T06:02:02.346Z,99.90
2018-09-03T06:04:31.434Z,99.90
2018-09-03T06:07:00.508Z,99.90
2018-09-03T06:09:29.633Z,99.90
2018-09-03T06:11:58.815Z,99.90
2018-09-03T06:14:28.069Z,99.90
2018-09-03T06:16:57.591Z,99.90
2018-09-03T06:19:26.874Z,99.90
2018-09-03T06:21:56.027Z,99.90
2018-09-03T06:24:25.104Z,99.90
2018-09-03T06:26:54.242Z,99.90
2018-09-03T06:29:23.332Z,99.90
2018-09-03T06:31:52.432Z,99.90
2018-09-03T06:34:21.476Z,99.90
2018-09-03T06:36:50.483Z,99.90
2018-09-03T06:39:19.642Z,99.80
2018-09-03T06:41:48.836Z,99.10
2018-09-03T06:44:17.871Z,98.70
2018-09-03T06:46:46.895Z,98.50
2018-09-03T06:49:16.000Z,99.00
2018-09-03T06:51:45.042Z,99.50
2018-09-03T06:54:14.439Z,99.80
2018-09-03T06:56:43.542Z,99.90
2018-09-03T06:59:12.626Z,99.60
2018-09-03T07:01:41.677Z,99.60
2018-09-03T07:04:12.252Z,99.80
2018-09-03T07:06:41.571Z,99.70
2018-09-03T07:09:11.056Z,99.40
2018-09-03T07:11:40.063Z,99.20
2018-09-03T07:14:09.101Z,98.90
2018-09-03T07:16:38.232Z,98.70
2018-09-03T07:19:07.386Z,98.50
2018-09-03T07:21:36.432Z,98.50
2018-09-03T07:24:06.265Z,98.60
2018-09-03T07:26:35.702Z,98.50
2018-09-03T07:29:04.796Z,98.40
2018-09-03T07:31:34.064Z,98.60
2018-09-03T07:34:03.088Z,98.90
2018-09-03T07:36:32.149Z,98.70
2018-09-03T07:39:01.554Z,98.60
2018-09-03T07:41:30.579Z,98.40
2018-09-03T07:43:59.617Z,98.60
2018-09-03T07:46:28.873Z,98.70
2018-09-03T07:48:58.160Z,98.20
2018-09-03T07:51:27.361Z,98.10
2018-09-03T07:53:57.702Z,98.50
2018-09-03T07:56:26.762Z,98.30
2018-09-03T07:58:55.870Z,98.20
2018-09-03T08:01:24.901Z,98.30
2018-09-03T08:03:53.998Z,98.20
2018-09-03T08:06:23.030Z,98.40
2018-09-03T08:08:52.225Z,97.90
2018-09-03T08:11:21.278Z,97.60
2018-09-03T08:13:50.328Z,97.40
2018-09-03T08:16:19.480Z,97.10
2018-09-03T08:18:49.696Z,97.30
2018-09-03T08:21:18.748Z,97.00
2018-09-03T08:23:47.877Z,96.60
2018-09-03T08:26:16.879Z,96.50
2018-09-03T08:28:45.912Z,96.20
2018-09-03T08:31:15.036Z,96.20
2018-09-03T08:33:44.035Z,95.80
2018-09-03T08:36:13.070Z,95.30
2018-09-03T08:38:42.154Z,94.50
2018-09-03T08:41:11.254Z,94.00
2018-09-03T08:43:40.423Z,93.80
2018-09-03T08:46:09.502Z,93.90
2018-09-03T08:48:38.939Z,93.70
2018-09-03T08:51:07.955Z,93.60
2018-09-03T08:53:37.032Z,93.60
2018-09-03T08:56:06.539Z,94.40
2018-09-03T08:58:35.850Z,94.10
2018-09-03T09:01:05.140Z,94.50
2018-09-03T09:03:40.340Z,94.50
2018-09-03T09:06:09.795Z,94.50
2018-09-03T09:08:38.852Z,94.60
2018-09-03T09:11:09.030Z,94.90
2018-09-03T09:13:38.236Z,95.20
2018-09-03T09:16:07.464Z,94.90
2018-09-03T09:18:36.884Z,94.50
2018-09-03T09:21:06.107Z,94.70
2018-09-03T09:23:35.331Z,94.20
2018-09-03T09:26:04.353Z,94.60
2018-09-03T09:28:33.431Z,94.30
2018-09-03T09:31:02.521Z,94.20
2018-09-03T09:33:31.685Z,94.90
2018-09-03T09:36:00.914Z,95.20
2018-09-03T09:38:30.185Z,94.80
2018-09-03T09:40:59.191Z,95.10
2018-09-03T09:43:28.289Z,95.20
2018-09-03T09:45:57.374Z,94.30
2018-09-03T09:48:26.464Z,94.30
2018-09-03T09:50:55.522Z,93.90
2018-09-03T09:53:24.570Z,93.70
2018-09-03T09:55:53.577Z,93.20
2018-09-03T09:58:22.703Z,93.30
2018-09-03T10:00:57.175Z,93.40
2018-09-03T10:03:26.271Z,93.40
2018-09-03T10:05:55.313Z,94.00
2018-09-03T10:08:24.432Z,93.80
2018-09-03T10:10:53.682Z,93.80
2018-09-03T10:13:22.723Z,93.50
2018-09-03T10:15:52.092Z,92.80
2018-09-03T10:18:21.248Z,92.80
2018-09-03T10:20:50.460Z,92.30
2018-09-03T10:23:19.854Z,92.00
2018-09-03T10:25:49.137Z,92.10
2018-09-03T10:28:18.160Z,92.30
2018-09-03T10:30:47.252Z,92.20
2018-09-03T10:33:16.474Z,92.20
2018-09-03T10:35:46.738Z,91.80
2018-09-03T10:38:16.205Z,91.10
2018-09-03T10:40:46.368Z,90.90
2018-09-03T10:43:15.419Z,91.30
2018-09-03T10:45:45.907Z,91.00
2018-09-03T10:48:16.419Z,90.40
2018-09-03T10:50:46.165Z,89.90
2018-09-03T10:53:15.295Z,89.60
2018-09-03T10:55:47.311Z,90.80
2018-09-03T10:58:16.356Z,90.50
2018-09-03T11:00:45.365Z,90.50
2018-09-03T11:03:14.510Z,89.90
2018-09-03T11:05:43.575Z,90.00
2018-09-03T11:08:12.792Z,90.30
2018-09-03T11:10:41.892Z,90.10
2018-09-03T11:13:11.005Z,90.90
2018-09-03T11:15:40.445Z,90.50
2018-09-03T11:18:09.648Z,90.30
2018-09-03T11:20:38.831Z,90.30
2018-09-03T11:23:08.003Z,90.10
2018-09-03T11:25:37.074Z,89.90
2018-09-03T11:28:06.404Z,88.60
2018-09-03T11:30:35.510Z,87.20
2018-09-03T11:33:04.889Z,85.70
2018-09-03T11:35:33.918Z,85.30
2018-09-03T11:38:02.934Z,85.70
2018-09-03T11:40:32.107Z,84.00
2018-09-03T11:43:01.332Z,83.30
2018-09-03T11:45:30.639Z,84.00
2018-09-03T11:48:00.340Z,82.20
2018-09-03T11:50:29.434Z,81.60
2018-09-03T11:52:58.505Z,82.80
2018-09-03T11:55:27.532Z,83.40
2018-09-03T11:57:56.594Z,83.00
2018-09-03T12:00:27.505Z,82.30
2018-09-03T12:02:56.807Z,82.00
2018-09-03T12:05:25.945Z,83.20
2018-09-03T12:07:55.163Z,83.00
2018-09-03T12:10:24.426Z,80.60
2018-09-03T12:12:53.458Z,80.00
2018-09-03T12:15:26.371Z,78.00
2018-09-03T12:17:55.401Z,77.00
2018-09-03T12:20:24.417Z,78.20
2018-09-03T12:22:53.497Z,78.20
2018-09-03T12:25:22.630Z,78.60
2018-09-03T12:27:51.690Z,79.20
2018-09-03T12:30:20.777Z,79.60
2018-09-03T12:32:50.126Z,81.70
2018-09-03T12:35:19.260Z,82.20
2018-09-03T12:37:48.303Z,82.70
2018-09-03T12:40:17.383Z,83.20
2018-09-03T12:42:47.133Z,81.90
2018-09-03T12:45:16.405Z,82.20
2018-09-03T12:47:45.478Z,82.20
2018-09-03T12:50:14.508Z,82.90
2018-09-03T12:52:43.846Z,83.40
2018-09-03T12:55:12.959Z,83.30
2018-09-03T12:57:42.098Z,83.80
2018-09-03T13:00:15.600Z,83.20
2018-09-03T13:02:44.943Z,80.90
2018-09-03T13:05:14.231Z,80.30
2018-09-03T13:07:43.311Z,78.90
2018-09-03T13:10:12.795Z,79.50
2018-09-03T13:12:41.952Z,79.80
2018-09-03T13:15:11.390Z,79.00
2018-09-03T13:17:45.223Z,78.50
2018-09-03T13:20:19.803Z,79.10
2018-09-03T13:22:49.842Z,78.40
2018-09-03T13:25:19.312Z,79.00
2018-09-03T13:27:50.367Z,78.60
2018-09-03T13:30:19.979Z,77.80
2018-09-03T13:32:49.100Z,77.80
2018-09-03T13:35:18.282Z,77.70
2018-09-03T13:37:47.430Z,77.70
2018-09-03T13:40:16.530Z,77.90
2018-09-03T13:42:45.565Z,78.40
2018-09-03T13:45:14.652Z,78.00
2018-09-03T13:47:44.983Z,77.70
2018-09-03T13:50:14.116Z,76.30
2018-09-03T13:52:43.227Z,75.00
2018-09-03T13:55:12.288Z,74.10
2018-09-03T13:57:41.562Z,73.40
2018-09-03T14:00:11.723Z,74.00
2018-09-03T14:02:41.100Z,76.30
2018-09-03T14:05:10.430Z,76.00
2018-09-03T14:07:39.653Z,77.10
2018-09-03T14:10:09.505Z,77.80
2018-09-03T14:12:38.652Z,77.70
2018-09-03T14:15:08.330Z,79.40
2018-09-03T14:17:37.559Z,78.50
2018-09-03T14:20:06.821Z,79.70
2018-09-03T14:22:36.010Z,80.90
2018-09-03T14:25:05.512Z,82.10
2018-09-03T14:27:34.608Z,81.50
2018-09-03T14:30:03.878Z,82.70
2018-09-03T14:32:32.946Z,84.30
2018-09-03T14:35:01.984Z,84.90
2018-09-03T14:37:31.037Z,84.40
2018-09-03T14:40:00.437Z,84.70
2018-09-03T14:42:29.561Z,84.80
2018-09-03T14:45:04.015Z,84.90
2018-09-03T14:47:33.415Z,86.00
2018-09-03T14:50:02.748Z,86.20
2018-09-03T14:52:31.989Z,87.10
2018-09-03T14:55:01.181Z,86.80
2018-09-03T14:57:30.303Z,87.40
2018-09-03T14:59:59.400Z,87.70
2018-09-03T15:02:28.776Z,88.80
2018-09-03T15:04:58.203Z,89.10
2018-09-03T15:07:27.232Z,89.30
2018-09-03T15:09:56.543Z,89.60
2018-09-03T15:12:25.575Z,89.10
2018-09-03T15:14:55.046Z,88.50
2018-09-03T15:17:24.260Z,88.20
2018-09-03T15:19:53.249Z,88.30
2018-09-03T15:22:22.297Z,87.90
2018-09-03T15:24:51.531Z,88.10
2018-09-03T15:27:20.800Z,87.90
2018-09-03T15:29:49.906Z,88.00
2018-09-03T15:32:18.973Z,87.80
2018-09-03T15:34:48.152Z,87.50
2018-09-03T15:37:17.221Z,87.70
2018-09-03T15:39:46.282Z,87.20
2018-09-03T15:42:15.406Z,86.90
2018-09-03T15:44:44.423Z,85.80
2018-09-03T15:47:13.472Z,85.50
2018-09-03T15:49:42.728Z,86.40
2018-09-03T15:52:11.802Z,85.50
2018-09-03T15:54:40.899Z,84.60
2018-09-03T15:57:09.934Z,83.60
2018-09-03T15:59:39.024Z,83.40
2018-09-03T16:02:08.210Z,83.30
2018-09-03T16:04:37.280Z,84.60
2018-09-03T16:07:06.348Z,85.40
2018-09-03T16:09:35.397Z,86.00
2018-09-03T16:12:04.467Z,86.30
2018-09-03T16:14:33.798Z,86.80
2018-09-03T16:17:03.182Z,86.20
2018-09-03T16:19:32.211Z,86.40
2018-09-03T16:22:01.333Z,85.60
2018-09-03T16:24:30.378Z,85.70
2018-09-03T16:26:59.426Z,84.90
2018-09-03T16:29:28.491Z,84.40
2018-09-03T16:31:57.606Z,83.60
2018-09-03T16:34:26.706Z,83.50
2018-09-03T16:36:55.738Z,83.90
2018-09-03T16:39:24.863Z,85.40
2018-09-03T16:41:54.008Z,85.60
2018-09-03T16:44:23.360Z,85.90
2018-09-03T16:46:52.453Z,85.90
2018-09-03T16:49:21.511Z,88.00
2018-09-03T16:51:50.761Z,89.30
2018-09-03T16:54:19.912Z,88.90
2018-09-03T16:56:49.088Z,89.70
2018-09-03T16:59:18.179Z,89.80
2018-09-03T17:01:47.285Z,90.20
2018-09-03T17:04:16.412Z,90.20
2018-09-03T17:06:45.848Z,90.30
2018-09-03T17:09:15.290Z,90.40
2018-09-03T17:11:44.342Z,90.40
2018-09-03T17:14:13.390Z,90.90
2018-09-03T17:16:42.457Z,90.60
2018-09-03T17:19:11.518Z,90.80
2018-09-03T17:21:40.576Z,90.90
2018-09-03T17:24:09.809Z,91.30
2018-09-03T17:26:38.852Z,91.90
2018-09-03T17:29:08.091Z,92.20
2018-09-03T17:31:37.135Z,92.30
2018-09-03T17:34:06.218Z,92.20
2018-09-03T17:36:35.291Z,92.70
2018-09-03T17:39:04.965Z,92.70
2018-09-03T17:41:34.008Z,92.80
2018-09-03T17:44:03.074Z,93.20
2018-09-03T17:46:32.159Z,93.40
2018-09-03T17:49:01.357Z,93.60
2018-09-03T17:51:30.690Z,93.70
2018-09-03T17:53:59.994Z,93.90
2018-09-03T17:56:29.157Z,94.00
2018-09-03T17:59:05.111Z,94.20
2018-09-03T18:01:34.138Z,94.30
2018-09-03T18:04:03.269Z,94.40
2018-09-03T18:06:32.337Z,94.70
2018-09-03T18:09:01.397Z,94.90
2018-09-03T18:11:30.458Z,95.00
2018-09-03T18:13:59.573Z,95.20
2018-09-03T18:16:28.991Z,95.50
2018-09-03T18:18:58.567Z,95.60
2018-09-03T18:21:27.826Z,95.60
2018-09-03T18:23:56.865Z,95.60
2018-09-03T18:26:25.882Z,95.80
2018-09-03T18:28:54.991Z,95.70
2018-09-03T18:31:24.053Z,95.80
2018-09-03T18:33:53.146Z,95.80
2018-09-03T18:36:22.341Z,95.90
2018-09-03T18:38:51.411Z,96.00
2018-09-03T18:41:20.459Z,96.10
2018-09-03T18:43:49.559Z,96.20
2018-09-03T18:46:18.669Z,96.30
2018-09-03T18:48:47.701Z,96.40
2018-09-03T18:51:16.730Z,96.60
2018-09-03T18:53:45.758Z,96.70
2018-09-03T18:56:15.172Z,96.70
2018-09-03T18:58:44.214Z,97.00
2018-09-03T19:01:13.285Z,97.10
2018-09-03T19:03:42.394Z,97.20
2018-09-03T19:06:11.513Z,97.20
2018-09-03T19:08:40.721Z,97.30
2018-09-03T19:11:09.827Z,97.40
2018-09-03T19:13:38.911Z,97.50
2018-09-03T19:16:08.003Z,97.50
2018-09-03T19:18:37.068Z,97.50
2018-09-03T19:21:06.133Z,97.40
2018-09-03T19:23:35.126Z,97.40
2018-09-03T19:26:04.177Z,97.50
2018-09-03T19:28:33.309Z,97.60
2018-09-03T19:31:02.459Z,97.70
2018-09-03T19:33:31.549Z,97.90
2018-09-03T19:36:00.575Z,98.00
2018-09-03T19:38:29.671Z,98.00
2018-09-03T19:40:58.704Z,98.20
2018-09-03T19:43:28.155Z,98.30
2018-09-03T19:45:57.178Z,98.20
2018-09-03T19:48:26.351Z,98.10
2018-09-03T19:50:55.582Z,98.10
2018-09-03T19:53:24.630Z,98.10
2018-09-03T19:55:53.742Z,98.30
2018-09-03T19:58:22.835Z,98.40
2018-09-03T20:00:51.908Z,98.60
2018-09-03T20:03:21.176Z,98.60
2018-09-03T20:05:50.381Z,98.80
2018-09-03T20:08:20.638Z,98.80
2018-09-03T20:10:49.940Z,98.90
2018-09-03T20:13:19.072Z,98.80
2018-09-03T20:15:48.168Z,98.80
2018-09-03T20:18:17.233Z,98.80
2018-09-03T20:20:46.277Z,98.70
2018-09-03T20:23:16.045Z,98.90
2018-09-03T20:25:45.228Z,99.10
2018-09-03T20:28:14.246Z,99.20
2018-09-03T20:30:43.396Z,99.30
2018-09-03T20:33:12.660Z,99.20
2018-09-03T20:35:41.787Z,99.50
2018-09-03T20:38:11.116Z,99.50
2018-09-03T20:40:40.150Z,99.50
2018-09-03T20:43:09.182Z,99.50
2018-09-03T20:45:38.237Z,99.40
2018-09-03T20:48:07.375Z,99.50
2018-09-03T20:50:36.525Z,99.50
2018-09-03T20:53:06.018Z,99.50
2018-09-03T20:55:35.149Z,99.40
2018-09-03T20:58:04.226Z,99.60
2018-09-03T21:00:33.358Z,99.80
2018-09-03T21:03:02.467Z,99.80
2018-09-03T21:05:31.758Z,99.90
2018-09-03T21:08:00.941Z,99.90
2018-09-03T21:10:30.063Z,99.90
2018-09-03T21:12:59.140Z,99.90
2018-09-03T21:15:28.215Z,99.90
2018-09-03T21:17:57.243Z,99.90
2018-09-03T21:20:26.244Z,99.90
2018-09-03T21:22:55.293Z,99.90
2018-09-03T21:25:24.334Z,99.90
2018-09-03T21:27:53.757Z,99.90
2018-09-03T21:30:22.782Z,99.90
2018-09-03T21:35:27.110Z,99.90
2018-09-03T21:37:56.181Z,99.90
2018-09-03T21:40:25.195Z,99.90
2018-09-03T21:42:54.278Z,99.90
2018-09-03T21:45:23.302Z,99.90
2018-09-03T21:47:52.346Z,99.90
2018-09-03T21:50:21.529Z,99.90
2018-09-03T21:52:50.581Z,99.90
2018-09-03T21:55:19.633Z,99.90
2018-09-03T21:57:48.671Z,99.90
2018-09-03T22:00:17.799Z,99.90
2018-09-03T22:02:46.809Z,99.90
2018-09-03T22:05:16.270Z,99.90
2018-09-03T22:07:45.331Z,99.90
2018-09-03T22:10:14.456Z,99.90
2018-09-03T22:12:43.924Z,99.90
2018-09-03T22:15:13.036Z,99.90
2018-09-03T22:17:42.072Z,99.90
2018-09-03T22:20:11.610Z,99.90
2018-09-03T22:22:40.628Z,99.90
2018-09-03T22:25:10.011Z,99.90
2018-09-03T22:27:39.085Z,99.90
2018-09-03T22:30:08.485Z,99.90
2018-09-03T22:32:37.524Z,99.90
2018-09-03T22:35:06.643Z,99.90
2018-09-03T22:37:35.646Z,99.90
2018-09-03T22:40:04.710Z,99.90
2018-09-03T22:42:33.833Z,99.90
2018-09-03T22:45:02.859Z,99.90
2018-09-03T22:47:32.096Z,99.90
2018-09-03T22:50:01.178Z,99.90
2018-09-03T22:52:30.235Z,99.90
2018-09-03T22:54:59.291Z,99.90
2018-09-03T22:57:28.717Z,99.90
2018-09-03T22:59:57.756Z,99.90
2018-09-03T23:02:26.782Z,99.90
2018-09-03T23:04:56.106Z,99.90
2018-09-03T23:07:25.148Z,99.90
2018-09-03T23:09:54.186Z,99.90
2018-09-03T23:12:23.453Z,99.90
2018-09-03T23:14:52.568Z,99.90
2018-09-03T23:17:28.189Z,99.90
2018-09-03T23:19:57.210Z,99.90
2018-09-03T23:22:26.303Z,99.90
2018-09-03T23:24:55.623Z,99.90
2018-09-03T23:27:24.770Z,99.90
2018-09-03T23:29:53.902Z,99.90
2018-09-03T23:32:23.063Z,99.90
2018-09-03T23:34:52.139Z,99.90
2018-09-03T23:37:21.194Z,99.90
2018-09-03T23:39:50.262Z,99.90
2018-09-03T23:42:19.450Z,99.90
2018-09-03T23:44:48.516Z,99.90
2018-09-03T23:47:17.538Z,99.90
2018-09-03T23:49:46.573Z,99.90
2018-09-03T23:52:15.617Z,99.90
2018-09-03T23:54:44.938Z,99.90
2018-09-03T23:57:13.987Z,99.90
2018-09-03T23:59:43.217Z,99.90
